createdAt,value
2022-08-25T00:00:37.120Z,100505.28
2022-08-25T00:05:40.852Z,100506.50
2022-08-25T00:10:42.838Z,100494.53
2022-08-25T00:15:46.805Z,100500.75
2022-08-25T00:20:49.648Z,100499.38
2022-08-25T00:25:51.430Z,100492.00
2022-08-25T00:30:53.111Z,100491.63
2022-08-25T00:35:56.492Z,100492.03
2022-08-25T00:41:07.484Z,100495.38
2022-08-25T00:46:10.381Z,100495.03
2022-08-25T00:51:16.938Z,100499.38
2022-08-25T00:56:19.040Z,100501.25
2022-08-25T01:01:23.718Z,100499.53
2022-08-25T01:06:27.335Z,100505.38
2022-08-25T01:11:28.992Z,100498.56
2022-08-25T01:16:30.579Z,100498.84
2022-08-25T01:21:39.839Z,100495.47
2022-08-25T01:26:41.466Z,100497.16
2022-08-25T01:31:43.240Z,100492.88
2022-08-25T01:36:45.156Z,100490.72
2022-08-25T01:42:11.606Z,100487.13
2022-08-25T01:47:14.576Z,100484.22
2022-08-25T01:52:30.188Z,100486.28
2022-08-25T01:57:31.825Z,100485.66
2022-08-25T02:02:33.482Z,100487.34
2022-08-25T02:07:37.071Z,100500.41
2022-08-25T02:12:39.682Z,100493.19
2022-08-25T02:17:41.337Z,100491.28
2022-08-25T02:22:43.846Z,100487.41
2022-08-25T02:27:54.843Z,100475.88
2022-08-25T02:32:56.489Z,100481.22
2022-08-25T02:37:58.470Z,100467.16
2022-08-25T02:43:00.084Z,100467.84
2022-08-25T02:48:02.755Z,100468.19
2022-08-25T02:53:04.347Z,100461.16
2022-08-25T02:58:06.637Z,100455.31
2022-08-25T03:03:08.563Z,100456.53
2022-08-25T03:08:11.146Z,100460.31
2022-08-25T03:13:12.785Z,100453.78
2022-08-25T03:18:15.528Z,100458.97
2022-08-25T03:23:17.750Z,100457.94
2022-08-25T03:28:19.664Z,100452.66
2022-08-25T03:33:30.353Z,100463.81
2022-08-25T03:38:31.944Z,100464.81
2022-08-25T03:43:33.536Z,100450.81
2022-08-25T03:48:35.136Z,100450.47
2022-08-25T03:53:36.818Z,100456.78
2022-08-25T03:58:38.429Z,100461.91
2022-08-25T04:03:40.156Z,100468.94
2022-08-25T04:08:42.034Z,100471.50
2022-08-25T04:13:47.693Z,100473.38
2022-08-25T04:18:50.537Z,100477.16
2022-08-25T04:23:53.745Z,100462.47
2022-08-25T04:28:58.022Z,100473.06
2022-08-25T04:34:04.894Z,100471.69
2022-08-25T04:39:26.560Z,100476.97
2022-08-25T04:44:29.461Z,100470.78
2022-08-25T04:49:32.046Z,100484.34
2022-08-25T04:54:37.287Z,100465.59
2022-08-25T04:59:39.393Z,100471.94
2022-08-25T05:04:41.600Z,100470.53
2022-08-25T05:09:43.334Z,100474.31
2022-08-25T05:14:44.921Z,100473.13
2022-08-25T05:19:46.558Z,100459.72
2022-08-25T05:24:48.126Z,100463.63
2022-08-25T05:29:49.727Z,100464.31
2022-08-25T05:34:51.301Z,100468.31
2022-08-25T05:39:52.916Z,100461.47
2022-08-25T05:44:55.442Z,100458.34
2022-08-25T05:49:57.085Z,100459.53
2022-08-25T05:55:00.725Z,100461.03
2022-08-25T06:00:03.228Z,100453.13
2022-08-25T06:05:05.178Z,100453.94
2022-08-25T06:10:11.599Z,100459.34
2022-08-25T06:15:15.263Z,100463.56
2022-08-25T06:20:20.271Z,100469.06
2022-08-25T06:25:28.032Z,100470.75
2022-08-25T06:30:29.854Z,100487.47
2022-08-25T06:35:31.532Z,100482.69
2022-08-25T06:40:35.696Z,100485.88
2022-08-25T06:45:37.573Z,100494.75
2022-08-25T06:50:40.136Z,100493.56
2022-08-25T06:55:42.636Z,100497.22
2022-08-25T07:00:44.489Z,100493.94
2022-08-25T07:05:53.485Z,100494.84
2022-08-25T07:10:55.337Z,100488.41
2022-08-25T07:15:57.036Z,100497.16
2022-08-25T07:21:00.003Z,100503.63
2022-08-25T07:26:36.226Z,100498.97
2022-08-25T07:31:35.793Z,100496.22
2022-08-25T07:36:39.074Z,100493.16
2022-08-25T07:41:43.135Z,100500.59
2022-08-25T07:46:44.962Z,100503.41
2022-08-25T07:52:04.185Z,100500.34
2022-08-25T07:57:08.934Z,100497.13
2022-08-25T08:02:18.508Z,100496.72
2022-08-25T08:07:41.983Z,100503.81
2022-08-25T08:12:45.874Z,100505.50
2022-08-25T08:17:47.546Z,100502.88
2022-08-25T08:22:49.864Z,100502.88
2022-08-25T08:27:51.504Z,100509.06
2022-08-25T08:33:12.817Z,100508.94
2022-08-25T08:38:20.827Z,100514.09
2022-08-25T08:43:25.058Z,100512.38
2022-08-25T08:48:49.238Z,100502.13
2022-08-25T08:54:06.887Z,100492.50
2022-08-25T08:59:30.017Z,100487.19
2022-08-25T09:04:39.156Z,100489.34
2022-08-25T09:09:43.256Z,100484.25
2022-08-25T09:15:03.148Z,100488.88
2022-08-25T09:20:45.459Z,100489.31
2022-08-25T09:26:10.543Z,100471.88
2022-08-25T09:31:27.599Z,100474.88
2022-08-25T09:36:37.390Z,100474.97
2022-08-25T09:41:52.145Z,100473.31
2022-08-25T09:46:55.488Z,100462.69
2022-08-25T09:52:18.783Z,100463.09
2022-08-25T09:57:43.058Z,100463.50
2022-08-25T10:03:12.716Z,100442.56
2022-08-25T10:08:33.940Z,100440.53
2022-08-25T10:13:43.102Z,100430.63
2022-08-25T10:18:44.728Z,100425.53
2022-08-25T10:23:51.743Z,100418.25
2022-08-25T10:29:35.996Z,100414.00
2022-08-25T10:34:53.411Z,100419.00
2022-08-25T10:40:13.068Z,100416.00
2022-08-25T10:45:44.933Z,100410.91
2022-08-25T10:50:53.613Z,100388.72
2022-08-25T10:56:10.906Z,100396.53
2022-08-25T11:01:32.944Z,100382.47
2022-08-25T11:06:55.872Z,100372.41
2022-08-25T11:12:02.967Z,100364.47
2022-08-25T11:17:19.112Z,100334.88
2022-08-25T11:22:25.428Z,100340.63
2022-08-25T11:28:19.581Z,100338.47
2022-08-25T11:33:26.275Z,100339.66
2022-08-25T11:38:49.217Z,100336.88
2022-08-25T11:43:53.948Z,100322.63
2022-08-25T11:49:21.935Z,100321.84
2022-08-25T11:54:28.869Z,100316.63
2022-08-25T11:59:52.219Z,100318.63
2022-08-25T12:04:55.453Z,100314.84
2022-08-25T12:10:03.219Z,100315.19
2022-08-25T12:15:13.927Z,100308.25
2022-08-25T12:20:15.624Z,100312.53
2022-08-25T12:25:35.470Z,100298.59
2022-08-25T12:31:01.778Z,100304.69
2022-08-25T12:36:11.364Z,100302.25
2022-08-25T12:41:19.189Z,100303.13
2022-08-25T12:46:20.718Z,100311.03
2022-08-25T12:51:26.464Z,100292.97
2022-08-25T12:56:45.444Z,100278.25
2022-08-25T13:02:26.594Z,100271.84
2022-08-25T13:07:56.005Z,100273.56
2022-08-25T13:13:10.668Z,100274.03
2022-08-25T13:18:18.182Z,100273.25
2022-08-25T13:23:29.157Z,100265.44
2022-08-25T13:28:37.876Z,100257.44
2022-08-25T13:34:04.246Z,100259.81
2022-08-25T13:39:45.422Z,100258.13
2022-08-25T13:44:52.287Z,100266.13
2022-08-25T13:50:34.417Z,100248.22
2022-08-25T13:55:51.581Z,100250.41
2022-08-25T14:01:47.355Z,100247.97
2022-08-25T14:06:47.989Z,100245.81
2022-08-25T14:11:57.242Z,100242.09
2022-08-25T14:17:22.282Z,100226.78
2022-08-25T14:22:31.096Z,100226.09
2022-08-25T14:27:38.742Z,100223.53
2022-08-25T14:32:43.978Z,100224.00
2022-08-25T14:37:46.035Z,100226.84
2022-08-25T14:42:47.740Z,100219.78
2022-08-25T14:47:50.162Z,100206.13
2022-08-25T14:52:52.328Z,100187.53
2022-08-25T14:57:53.998Z,100195.97
2022-08-25T15:02:56.639Z,100196.91
2022-08-25T15:08:17.142Z,100180.72
2022-08-25T15:13:19.234Z,100184.50
2022-08-25T15:18:21.970Z,100181.50
2022-08-25T15:23:23.682Z,100181.19
2022-08-25T15:28:25.347Z,100167.09
2022-08-25T15:33:28.261Z,100170.13
2022-08-25T15:38:30.344Z,100172.16
2022-08-25T15:43:32.834Z,100168.94
2022-08-25T15:48:35.599Z,100161.34
2022-08-25T15:53:37.241Z,100162.16
2022-08-25T15:58:38.837Z,100148.28
2022-08-25T16:03:51.910Z,100143.19
2022-08-25T16:08:54.258Z,100137.00
2022-08-25T16:13:57.229Z,100145.19
2022-08-25T16:18:58.881Z,100155.38
2022-08-25T16:24:07.261Z,100150.91
2022-08-25T16:29:10.135Z,100148.91
2022-08-25T16:34:12.192Z,100145.56
2022-08-25T16:39:13.978Z,100134.91
2022-08-25T16:44:16.489Z,100125.50
2022-08-25T16:49:18.122Z,100126.59
2022-08-25T16:54:38.086Z,100144.28
2022-08-25T16:59:39.799Z,100139.91
2022-08-25T17:04:42.043Z,100127.59
2022-08-25T17:09:44.288Z,100123.34
2022-08-25T17:14:49.010Z,100140.09
2022-08-25T17:19:53.430Z,100146.53
2022-08-25T17:25:01.028Z,100140.25
2022-08-25T17:30:04.207Z,100128.81
2022-08-25T17:35:06.537Z,100143.81
2022-08-25T17:40:09.691Z,100142.19
2022-08-25T17:45:12.755Z,100150.75
2022-08-25T17:50:15.245Z,100143.34
2022-08-25T17:55:23.118Z,100144.94
2022-08-25T18:00:25.377Z,100138.38
2022-08-25T18:05:27.800Z,100152.72
2022-08-25T18:10:29.952Z,100148.50
2022-08-25T18:15:33.953Z,100145.94
2022-08-25T18:20:35.888Z,100146.63
2022-08-25T18:25:37.519Z,100156.22
2022-08-25T18:30:43.741Z,100173.69
2022-08-25T18:35:46.296Z,100177.34
2022-08-25T18:40:59.028Z,100165.94
2022-08-25T18:46:03.513Z,100162.56
2022-08-25T18:51:06.908Z,100156.44
2022-08-25T18:56:12.130Z,100167.97
2022-08-25T19:01:16.208Z,100166.69
2022-08-25T19:06:19.456Z,100162.03
2022-08-25T19:11:22.630Z,100162.47
2022-08-25T19:16:34.590Z,100147.63
2022-08-25T19:21:36.297Z,100148.06
2022-08-25T19:26:38.568Z,100148.09
2022-08-25T19:31:41.929Z,100144.69
2022-08-25T19:36:43.956Z,100151.09
2022-08-25T19:41:46.815Z,100138.81
2022-08-25T19:46:51.447Z,100133.69
2022-08-25T19:51:55.356Z,100128.59
2022-08-25T19:56:58.489Z,100118.41
2022-08-25T20:02:00.174Z,100119.25
2022-08-25T20:07:02.504Z,100126.88
2022-08-25T20:12:06.395Z,100130.72
2022-08-25T20:17:14.429Z,100137.50
2022-08-25T20:22:29.013Z,100145.56
2022-08-25T20:27:34.574Z,100146.00
2022-08-25T20:32:36.880Z,100146.25
2022-08-25T20:37:38.914Z,100149.84
2022-08-25T20:42:40.777Z,100145.78
2022-08-25T20:47:45.234Z,100155.78
2022-08-25T20:52:48.529Z,100145.13
2022-08-25T20:57:50.268Z,100140.84
2022-08-25T21:02:52.844Z,100138.50
2022-08-25T21:07:54.530Z,100133.22
2022-08-25T21:12:56.104Z,100133.22
2022-08-25T21:17:57.689Z,100140.59
2022-08-25T21:22:59.287Z,100133.38
2022-08-25T21:28:00.869Z,100132.28
2022-08-25T21:33:02.501Z,100135.22
2022-08-25T21:38:04.168Z,100137.81
2022-08-25T21:43:06.411Z,100129.28
2022-08-25T21:48:08.933Z,100127.59
2022-08-25T21:53:10.873Z,100119.50
2022-08-25T21:58:13.088Z,100116.06
2022-08-25T22:03:15.021Z,100118.13
2022-08-25T22:08:16.775Z,100116.63
2022-08-25T22:13:21.112Z,100115.31
2022-08-25T22:18:23.492Z,100117.22
2022-08-25T22:23:28.219Z,100111.69
2022-08-25T22:28:30.164Z,100110.00
2022-08-25T22:33:31.897Z,100104.91
2022-08-25T22:38:33.494Z,100093.41
2022-08-25T22:43:35.055Z,100095.94
2022-08-25T22:48:36.963Z,100092.28
2022-08-25T22:53:40.197Z,100081.44
2022-08-25T22:58:42.368Z,100078.03
2022-08-25T23:03:53.252Z,100072.94
2022-08-25T23:08:56.336Z,100073.13
2022-08-25T23:14:05.470Z,100070.16
2022-08-25T23:19:07.303Z,100073.31
2022-08-25T23:24:13.579Z,100069.81
2022-08-25T23:29:19.116Z,100074.88
2022-08-25T23:34:22.188Z,100067.44
2022-08-25T23:39:24.127Z,100060.84
2022-08-25T23:44:25.873Z,100050.63
2022-08-25T23:49:27.511Z,100052.72
2022-08-25T23:54:31.160Z,100045.28
2022-08-25T23:59:33.342Z,100047.53
